Terminal Aerodrome Forecast
Issued by NWS

Home | Current Version | Previous Version | Text Only | Print | Product List | Glossary On
Versions: 1 2 3 4 5 6 7 8 9 10 11 12 13 14
000
FTUS45 KRIW 221724
TAFCPR
TAF
KCPR 221724Z 2218/2318 22016G26KT P6SM SKC
     FM221900 25016G26KT P6SM SKC
     FM222200 30012G18KT P6SM SKC
     FM230100 29008KT P6SM SKC
     FM231100 36009KT P6SM SKC
     FM231600 30009KT P6SM SKC=

USA.gov is the U.S. government's official web portal to all federal, state and local government web resources and services.